sensor_id;sensor_type;location;lat;lon;timestamp;P1;durP1;ratioP1;P2;durP2;ratioP2
58294;SDS011;45705;55.592;37.460;2023-06-14T00:01:53;11.60;;;6.20;;
58294;SDS011;45705;55.592;37.460;2023-06-14T00:04:20;15.88;;;6.05;;
58294;SDS011;45705;55.592;37.460;2023-06-14T00:06:47;12.18;;;6.05;;
58294;SDS011;45705;55.592;37.460;2023-06-14T00:09:14;17.13;;;5.63;;
58294;SDS011;45705;55.592;37.460;2023-06-14T00:11:40;14.73;;;5.32;;
58294;SDS011;45705;55.592;37.460;2023-06-14T00:14:06;13.23;;;5.55;;
58294;SDS011;45705;55.592;37.460;2023-06-14T00:16:33;13.32;;;6.30;;
58294;SDS011;45705;55.592;37.460;2023-06-14T00:19:03;15.77;;;6.25;;
58294;SDS011;45705;55.592;37.460;2023-06-14T00:21:30;10.48;;;5.72;;
58294;SDS011;45705;55.592;37.460;2023-06-14T00:23:57;22.45;;;6.53;;
58294;SDS011;45705;55.592;37.460;2023-06-14T00:26:23;18.10;;;6.32;;
58294;SDS011;45705;55.592;37.460;2023-06-14T00:28:51;21.48;;;5.95;;
58294;SDS011;45705;55.592;37.460;2023-06-14T00:31:17;16.40;;;6.97;;
58294;SDS011;45705;55.592;37.460;2023-06-14T00:33:43;18.33;;;7.35;;
58294;SDS011;45705;55.592;37.460;2023-06-14T00:36:10;23.58;;;6.40;;
58294;SDS011;45705;55.592;37.460;2023-06-14T00:38:37;17.15;;;6.93;;
58294;SDS011;45705;55.592;37.460;2023-06-14T00:41:02;14.80;;;6.97;;
58294;SDS011;45705;55.592;37.460;2023-06-14T00:43:28;17.58;;;6.15;;
58294;SDS011;45705;55.592;37.460;2023-06-14T00:45:54;20.83;;;6.78;;
58294;SDS011;45705;55.592;37.460;2023-06-14T00:48:20;16.20;;;6.53;;
58294;SDS011;45705;55.592;37.460;2023-06-14T00:50:47;21.20;;;6.75;;
58294;SDS011;45705;55.592;37.460;2023-06-14T00:53:15;17.47;;;6.30;;
58294;SDS011;45705;55.592;37.460;2023-06-14T00:55:44;14.60;;;6.68;;
58294;SDS011;45705;55.592;37.460;2023-06-14T00:58:10;26.15;;;9.55;;
58294;SDS011;45705;55.592;37.460;2023-06-14T01:00:37;18.35;;;6.55;;
58294;SDS011;45705;55.592;37.460;2023-06-14T01:03:03;19.38;;;6.82;;
58294;SDS011;45705;55.592;37.460;2023-06-14T01:05:29;15.98;;;7.95;;
58294;SDS011;45705;55.592;37.460;2023-06-14T01:11:01;21.73;;;7.53;;
58294;SDS011;45705;55.592;37.460;2023-06-14T01:13:46;26.38;;;7.80;;
58294;SDS011;45705;55.592;37.460;2023-06-14T01:16:15;21.35;;;8.02;;
58294;SDS011;45705;55.592;37.460;2023-06-14T01:18:42;21.75;;;7.25;;
58294;SDS011;45705;55.592;37.460;2023-06-14T01:21:20;25.10;;;7.93;;
58294;SDS011;45705;55.592;37.460;2023-06-14T01:23:48;22.35;;;6.75;;
58294;SDS011;45705;55.592;37.460;2023-06-14T01:26:19;18.05;;;6.90;;
58294;SDS011;45705;55.592;37.460;2023-06-14T01:28:48;27.30;;;7.70;;
58294;SDS011;45705;55.592;37.460;2023-06-14T01:31:17;30.65;;;7.72;;
58294;SDS011;45705;55.592;37.460;2023-06-14T01:33:47;19.70;;;7.50;;
58294;SDS011;45705;55.592;37.460;2023-06-14T01:36:16;33.35;;;7.70;;
58294;SDS011;45705;55.592;37.460;2023-06-14T01:38:48;22.05;;;6.85;;
58294;SDS011;45705;55.592;37.460;2023-06-14T01:41:16;22.30;;;8.48;;
58294;SDS011;45705;55.592;37.460;2023-06-14T01:43:43;15.10;;;6.57;;
58294;SDS011;45705;55.592;37.460;2023-06-14T01:46:10;22.83;;;7.85;;
58294;SDS011;45705;55.592;37.460;2023-06-14T01:48:38;30.25;;;8.25;;
58294;SDS011;45705;55.592;37.460;2023-06-14T01:51:04;19.25;;;7.00;;
58294;SDS011;45705;55.592;37.460;2023-06-14T01:53:30;18.63;;;6.10;;
58294;SDS011;45705;55.592;37.460;2023-06-14T01:55:55;25.10;;;6.95;;
58294;SDS011;45705;55.592;37.460;2023-06-14T01:58:22;23.33;;;6.22;;
58294;SDS011;45705;55.592;37.460;2023-06-14T02:00:49;28.80;;;7.20;;
58294;SDS011;45705;55.592;37.460;2023-06-14T02:03:16;28.92;;;7.28;;
58294;SDS011;45705;55.592;37.460;2023-06-14T02:05:42;18.30;;;6.35;;
58294;SDS011;45705;55.592;37.460;2023-06-14T02:08:08;20.95;;;6.57;;
58294;SDS011;45705;55.592;37.460;2023-06-14T02:10:34;18.92;;;6.63;;
58294;SDS011;45705;55.592;37.460;2023-06-14T02:13:00;19.00;;;6.10;;
58294;SDS011;45705;55.592;37.460;2023-06-14T02:15:26;26.80;;;6.90;;
58294;SDS011;45705;55.592;37.460;2023-06-14T02:18:00;17.98;;;7.32;;
58294;SDS011;45705;55.592;37.460;2023-06-14T02:20:27;22.85;;;8.10;;
58294;SDS011;45705;55.592;37.460;2023-06-14T02:22:53;30.48;;;9.30;;
58294;SDS011;45705;55.592;37.460;2023-06-14T02:25:20;29.95;;;8.57;;
58294;SDS011;45705;55.592;37.460;2023-06-14T02:27:45;24.45;;;9.00;;
58294;SDS011;45705;55.592;37.460;2023-06-14T02:30:11;29.60;;;9.73;;
58294;SDS011;45705;55.592;37.460;2023-06-14T02:32:37;35.05;;;8.93;;
58294;SDS011;45705;55.592;37.460;2023-06-14T02:35:04;29.58;;;8.70;;
58294;SDS011;45705;55.592;37.460;2023-06-14T02:37:32;26.77;;;9.98;;
58294;SDS011;45705;55.592;37.460;2023-06-14T02:39:58;25.35;;;11.35;;
58294;SDS011;45705;55.592;37.460;2023-06-14T02:42:24;25.58;;;10.02;;
58294;SDS011;45705;55.592;37.460;2023-06-14T02:44:49;36.63;;;12.45;;
58294;SDS011;45705;55.592;37.460;2023-06-14T02:47:17;33.58;;;12.77;;
58294;SDS011;45705;55.592;37.460;2023-06-14T02:49:43;23.70;;;10.45;;
58294;SDS011;45705;55.592;37.460;2023-06-14T02:52:13;29.65;;;11.85;;
58294;SDS011;45705;55.592;37.460;2023-06-14T02:54:40;32.65;;;12.88;;
58294;SDS011;45705;55.592;37.460;2023-06-14T02:57:07;34.78;;;13.65;;
58294;SDS011;45705;55.592;37.460;2023-06-14T02:59:34;22.48;;;8.55;;
58294;SDS011;45705;55.592;37.460;2023-06-14T03:02:02;13.82;;;6.65;;
58294;SDS011;45705;55.592;37.460;2023-06-14T03:04:30;26.92;;;13.55;;
58294;SDS011;45705;55.592;37.460;2023-06-14T03:07:00;37.47;;;14.35;;
58294;SDS011;45705;55.592;37.460;2023-06-14T03:09:28;29.67;;;10.75;;
58294;SDS011;45705;55.592;37.460;2023-06-14T03:11:55;12.00;;;5.07;;
58294;SDS011;45705;55.592;37.460;2023-06-14T03:14:21;22.00;;;8.60;;
58294;SDS011;45705;55.592;37.460;2023-06-14T03:16:47;22.17;;;6.18;;
58294;SDS011;45705;55.592;37.460;2023-06-14T03:21:42;13.60;;;5.07;;
58294;SDS011;45705;55.592;37.460;2023-06-14T03:24:10;22.33;;;5.70;;
58294;SDS011;45705;55.592;37.460;2023-06-14T03:26:37;18.90;;;5.60;;
58294;SDS011;45705;55.592;37.460;2023-06-14T03:29:03;20.50;;;4.10;;
58294;SDS011;45705;55.592;37.460;2023-06-14T03:31:29;21.48;;;4.10;;
58294;SDS011;45705;55.592;37.460;2023-06-14T03:33:59;14.27;;;4.18;;
58294;SDS011;45705;55.592;37.460;2023-06-14T03:36:26;15.57;;;4.50;;
58294;SDS011;45705;55.592;37.460;2023-06-14T03:38:54;16.90;;;4.15;;
58294;SDS011;45705;55.592;37.460;2023-06-14T03:41:20;12.30;;;4.18;;
58294;SDS011;45705;55.592;37.460;2023-06-14T03:43:48;16.65;;;4.10;;
58294;SDS011;45705;55.592;37.460;2023-06-14T03:46:14;16.42;;;4.45;;
58294;SDS011;45705;55.592;37.460;2023-06-14T03:48:41;11.52;;;3.78;;
58294;SDS011;45705;55.592;37.460;2023-06-14T03:51:07;8.60;;;3.10;;
58294;SDS011;45705;55.592;37.460;2023-06-14T03:53:33;6.40;;;3.85;;
58294;SDS011;45705;55.592;37.460;2023-06-14T03:56:02;10.80;;;2.95;;
58294;SDS011;45705;55.592;37.460;2023-06-14T03:58:37;10.52;;;2.88;;
58294;SDS011;45705;55.592;37.460;2023-06-14T04:01:03;9.90;;;2.95;;
58294;SDS011;45705;55.592;37.460;2023-06-14T04:03:30;5.38;;;3.10;;
58294;SDS011;45705;55.592;37.460;2023-06-14T04:05:56;12.50;;;3.15;;
58294;SDS011;45705;55.592;37.460;2023-06-14T04:08:22;11.95;;;3.45;;
58294;SDS011;45705;55.592;37.460;2023-06-14T04:10:50;10.27;;;3.33;;
58294;SDS011;45705;55.592;37.460;2023-06-14T04:13:15;11.07;;;3.78;;
58294;SDS011;45705;55.592;37.460;2023-06-14T04:15:43;8.73;;;3.40;;
58294;SDS011;45705;55.592;37.460;2023-06-14T04:18:14;10.40;;;3.15;;
58294;SDS011;45705;55.592;37.460;2023-06-14T04:20:40;13.02;;;3.20;;
58294;SDS011;45705;55.592;37.460;2023-06-14T04:23:16;10.30;;;3.13;;
58294;SDS011;45705;55.592;37.460;2023-06-14T04:25:48;12.27;;;3.80;;
58294;SDS011;45705;55.592;37.460;2023-06-14T04:28:16;7.78;;;2.90;;
58294;SDS011;45705;55.592;37.460;2023-06-14T04:30:43;8.00;;;2.97;;
58294;SDS011;45705;55.592;37.460;2023-06-14T04:33:14;8.07;;;3.08;;
58294;SDS011;45705;55.592;37.460;2023-06-14T04:35:40;5.72;;;3.10;;
58294;SDS011;45705;55.592;37.460;2023-06-14T04:38:08;9.70;;;2.97;;
58294;SDS011;45705;55.592;37.460;2023-06-14T04:40:35;11.48;;;3.20;;
58294;SDS011;45705;55.592;37.460;2023-06-14T04:43:09;11.70;;;3.17;;
58294;SDS011;45705;55.592;37.460;2023-06-14T04:45:38;7.13;;;3.20;;
58294;SDS011;45705;55.592;37.460;2023-06-14T04:48:05;8.60;;;3.30;;
58294;SDS011;45705;55.592;37.460;2023-06-14T04:50:32;10.13;;;4.30;;
58294;SDS011;45705;55.592;37.460;2023-06-14T04:52:58;16.25;;;4.38;;
58294;SDS011;45705;55.592;37.460;2023-06-14T04:55:25;12.23;;;4.32;;
58294;SDS011;45705;55.592;37.460;2023-06-14T04:57:52;6.22;;;4.10;;
58294;SDS011;45705;55.592;37.460;2023-06-14T05:00:21;16.98;;;4.13;;
58294;SDS011;45705;55.592;37.460;2023-06-14T05:02:47;12.95;;;3.90;;
58294;SDS011;45705;55.592;37.460;2023-06-14T05:05:15;13.55;;;4.38;;
58294;SDS011;45705;55.592;37.460;2023-06-14T05:07:42;10.68;;;3.75;;
58294;SDS011;45705;55.592;37.460;2023-06-14T05:10:08;10.52;;;3.60;;
58294;SDS011;45705;55.592;37.460;2023-06-14T05:12:35;9.65;;;3.22;;
58294;SDS011;45705;55.592;37.460;2023-06-14T05:15:02;7.50;;;3.38;;
58294;SDS011;45705;55.592;37.460;2023-06-14T05:19:55;13.00;;;4.20;;
58294;SDS011;45705;55.592;37.460;2023-06-14T05:22:21;10.27;;;3.60;;
58294;SDS011;45705;55.592;37.460;2023-06-14T05:24:47;11.40;;;3.70;;
58294;SDS011;45705;55.592;37.460;2023-06-14T05:27:13;7.70;;;3.55;;
58294;SDS011;45705;55.592;37.460;2023-06-14T05:29:39;12.18;;;3.97;;
58294;SDS011;45705;55.592;37.460;2023-06-14T05:32:05;8.88;;;3.05;;
58294;SDS011;45705;55.592;37.460;2023-06-14T05:34:31;5.65;;;2.83;;
58294;SDS011;45705;55.592;37.460;2023-06-14T05:36:57;6.60;;;2.97;;
58294;SDS011;45705;55.592;37.460;2023-06-14T05:39:24;6.73;;;3.23;;
58294;SDS011;45705;55.592;37.460;2023-06-14T05:41:50;9.50;;;3.38;;
58294;SDS011;45705;55.592;37.460;2023-06-14T05:44:15;6.63;;;3.30;;
58294;SDS011;45705;55.592;37.460;2023-06-14T05:46:41;11.70;;;3.25;;
58294;SDS011;45705;55.592;37.460;2023-06-14T05:49:07;4.78;;;2.97;;
58294;SDS011;45705;55.592;37.460;2023-06-14T05:51:32;5.80;;;2.45;;
58294;SDS011;45705;55.592;37.460;2023-06-14T05:53:59;6.40;;;3.42;;
58294;SDS011;45705;55.592;37.460;2023-06-14T05:56:25;7.50;;;3.20;;
58294;SDS011;45705;55.592;37.460;2023-06-14T05:58:51;7.50;;;3.25;;
58294;SDS011;45705;55.592;37.460;2023-06-14T06:01:17;11.63;;;3.30;;
58294;SDS011;45705;55.592;37.460;2023-06-14T06:03:43;9.48;;;3.03;;
58294;SDS011;45705;55.592;37.460;2023-06-14T06:06:12;6.65;;;3.45;;
58294;SDS011;45705;55.592;37.460;2023-06-14T06:08:38;10.30;;;4.82;;
58294;SDS011;45705;55.592;37.460;2023-06-14T06:11:04;8.05;;;3.85;;
58294;SDS011;45705;55.592;37.460;2023-06-14T06:13:30;10.07;;;3.90;;
58294;SDS011;45705;55.592;37.460;2023-06-14T06:15:56;7.50;;;3.58;;
58294;SDS011;45705;55.592;37.460;2023-06-14T06:18:21;11.45;;;3.47;;
58294;SDS011;45705;55.592;37.460;2023-06-14T06:20:47;11.57;;;3.05;;
58294;SDS011;45705;55.592;37.460;2023-06-14T06:23:13;10.23;;;3.30;;
58294;SDS011;45705;55.592;37.460;2023-06-14T06:25:39;7.10;;;2.70;;
58294;SDS011;45705;55.592;37.460;2023-06-14T06:28:05;3.85;;;2.60;;
58294;SDS011;45705;55.592;37.460;2023-06-14T06:30:31;8.05;;;3.50;;
58294;SDS011;45705;55.592;37.460;2023-06-14T06:32:57;5.53;;;3.08;;
58294;SDS011;45705;55.592;37.460;2023-06-14T06:35:23;6.68;;;3.35;;
58294;SDS011;45705;55.592;37.460;2023-06-14T06:37:49;11.02;;;3.25;;
58294;SDS011;45705;55.592;37.460;2023-06-14T06:40:14;7.95;;;3.40;;
58294;SDS011;45705;55.592;37.460;2023-06-14T06:42:41;6.47;;;3.92;;
58294;SDS011;45705;55.592;37.460;2023-06-14T06:45:10;7.50;;;3.20;;
58294;SDS011;45705;55.592;37.460;2023-06-14T06:47:36;5.03;;;3.15;;
58294;SDS011;45705;55.592;37.460;2023-06-14T06:50:02;8.73;;;3.13;;
58294;SDS011;45705;55.592;37.460;2023-06-14T06:52:31;7.88;;;3.13;;
58294;SDS011;45705;55.592;37.460;2023-06-14T06:54:57;5.07;;;2.90;;
58294;SDS011;45705;55.592;37.460;2023-06-14T06:57:23;6.45;;;3.03;;
58294;SDS011;45705;55.592;37.460;2023-06-14T06:59:49;7.22;;;3.30;;
58294;SDS011;45705;55.592;37.460;2023-06-14T07:02:15;6.47;;;2.95;;
58294;SDS011;45705;55.592;37.460;2023-06-14T07:04:42;6.45;;;3.15;;
58294;SDS011;45705;55.592;37.460;2023-06-14T07:07:08;5.90;;;2.67;;
58294;SDS011;45705;55.592;37.460;2023-06-14T07:09:35;5.63;;;2.95;;
58294;SDS011;45705;55.592;37.460;2023-06-14T07:12:01;6.03;;;2.92;;
58294;SDS011;45705;55.592;37.460;2023-06-14T07:14:27;8.05;;;2.88;;
58294;SDS011;45705;55.592;37.460;2023-06-14T07:16:54;11.82;;;3.17;;
58294;SDS011;45705;55.592;37.460;2023-06-14T07:19:20;5.60;;;3.80;;
58294;SDS011;45705;55.592;37.460;2023-06-14T07:21:46;6.72;;;3.70;;
58294;SDS011;45705;55.592;37.460;2023-06-14T07:24:11;6.78;;;3.30;;
58294;SDS011;45705;55.592;37.460;2023-06-14T07:26:37;5.32;;;2.63;;
58294;SDS011;45705;55.592;37.460;2023-06-14T07:29:03;9.07;;;2.97;;
58294;SDS011;45705;55.592;37.460;2023-06-14T07:31:29;6.82;;;3.00;;
58294;SDS011;45705;55.592;37.460;2023-06-14T07:33:54;8.15;;;3.60;;
58294;SDS011;45705;55.592;37.460;2023-06-14T07:36:20;6.57;;;3.67;;
58294;SDS011;45705;55.592;37.460;2023-06-14T07:38:46;11.45;;;3.55;;
58294;SDS011;45705;55.592;37.460;2023-06-14T07:41:12;5.90;;;2.72;;
58294;SDS011;45705;55.592;37.460;2023-06-14T07:43:37;4.68;;;3.10;;
58294;SDS011;45705;55.592;37.460;2023-06-14T07:46:03;10.23;;;3.22;;
58294;SDS011;45705;55.592;37.460;2023-06-14T07:48:30;10.75;;;3.40;;
58294;SDS011;45705;55.592;37.460;2023-06-14T07:50:55;8.68;;;3.35;;
58294;SDS011;45705;55.592;37.460;2023-06-14T07:53:21;5.88;;;3.17;;
58294;SDS011;45705;55.592;37.460;2023-06-14T07:55:47;6.78;;;3.92;;
58294;SDS011;45705;55.592;37.460;2023-06-14T07:58:14;10.35;;;6.25;;
58294;SDS011;45705;55.592;37.460;2023-06-14T08:00:39;11.27;;;5.85;;
58294;SDS011;45705;55.592;37.460;2023-06-14T08:03:05;8.13;;;4.47;;
58294;SDS011;45705;55.592;37.460;2023-06-14T08:05:31;8.48;;;4.00;;
58294;SDS011;45705;55.592;37.460;2023-06-14T08:07:57;6.22;;;3.30;;
58294;SDS011;45705;55.592;37.460;2023-06-14T08:10:22;8.50;;;3.30;;
58294;SDS011;45705;55.592;37.460;2023-06-14T08:12:48;6.82;;;3.58;;
58294;SDS011;45705;55.592;37.460;2023-06-14T08:15:17;10.00;;;3.58;;
58294;SDS011;45705;55.592;37.460;2023-06-14T08:17:44;9.15;;;3.53;;
58294;SDS011;45705;55.592;37.460;2023-06-14T08:20:10;10.18;;;3.45;;
58294;SDS011;45705;55.592;37.460;2023-06-14T08:22:37;8.70;;;5.25;;
58294;SDS011;45705;55.592;37.460;2023-06-14T08:25:04;5.80;;;2.90;;
58294;SDS011;45705;55.592;37.460;2023-06-14T08:27:32;8.13;;;3.30;;
58294;SDS011;45705;55.592;37.460;2023-06-14T08:29:57;6.45;;;2.85;;
58294;SDS011;45705;55.592;37.460;2023-06-14T08:32:23;8.48;;;3.45;;
58294;SDS011;45705;55.592;37.460;2023-06-14T08:34:49;11.95;;;3.63;;
58294;SDS011;45705;55.592;37.460;2023-06-14T08:37:15;8.23;;;3.22;;
58294;SDS011;45705;55.592;37.460;2023-06-14T08:39:41;7.10;;;3.00;;
58294;SDS011;45705;55.592;37.460;2023-06-14T08:42:07;6.57;;;2.92;;
58294;SDS011;45705;55.592;37.460;2023-06-14T08:44:34;8.55;;;3.45;;
58294;SDS011;45705;55.592;37.460;2023-06-14T08:47:00;4.65;;;3.55;;
58294;SDS011;45705;55.592;37.460;2023-06-14T08:49:26;8.30;;;3.40;;
58294;SDS011;45705;55.592;37.460;2023-06-14T08:51:54;9.38;;;3.90;;
58294;SDS011;45705;55.592;37.460;2023-06-14T08:54:24;8.95;;;4.20;;
58294;SDS011;45705;55.592;37.460;2023-06-14T08:56:53;9.40;;;4.65;;
58294;SDS011;45705;55.592;37.460;2023-06-14T08:59:26;6.75;;;3.85;;
58294;SDS011;45705;55.592;37.460;2023-06-14T09:01:52;9.85;;;3.72;;
58294;SDS011;45705;55.592;37.460;2023-06-14T09:04:23;10.07;;;3.60;;
58294;SDS011;45705;55.592;37.460;2023-06-14T09:06:55;14.02;;;3.60;;
58294;SDS011;45705;55.592;37.460;2023-06-14T09:09:22;5.70;;;3.50;;
58294;SDS011;45705;55.592;37.460;2023-06-14T09:11:49;10.00;;;3.93;;
58294;SDS011;45705;55.592;37.460;2023-06-14T09:14:17;9.40;;;3.42;;
58294;SDS011;45705;55.592;37.460;2023-06-14T09:16:44;9.45;;;4.18;;
58294;SDS011;45705;55.592;37.460;2023-06-14T09:19:13;9.75;;;3.70;;
58294;SDS011;45705;55.592;37.460;2023-06-14T09:21:47;9.32;;;3.97;;
58294;SDS011;45705;55.592;37.460;2023-06-14T09:24:13;7.70;;;3.75;;
58294;SDS011;45705;55.592;37.460;2023-06-14T09:26:39;9.45;;;3.63;;
58294;SDS011;45705;55.592;37.460;2023-06-14T09:29:06;7.38;;;3.72;;
58294;SDS011;45705;55.592;37.460;2023-06-14T09:31:32;9.27;;;3.80;;
58294;SDS011;45705;55.592;37.460;2023-06-14T09:33:58;9.10;;;3.65;;
58294;SDS011;45705;55.592;37.460;2023-06-14T09:36:27;5.97;;;3.35;;
58294;SDS011;45705;55.592;37.460;2023-06-14T09:39:00;5.50;;;3.70;;
58294;SDS011;45705;55.592;37.460;2023-06-14T09:41:30;7.65;;;4.43;;
58294;SDS011;45705;55.592;37.460;2023-06-14T09:44:02;9.25;;;3.42;;
58294;SDS011;45705;55.592;37.460;2023-06-14T09:46:29;5.95;;;3.47;;
58294;SDS011;45705;55.592;37.460;2023-06-14T09:48:57;7.93;;;3.65;;
58294;SDS011;45705;55.592;37.460;2023-06-14T09:51:23;10.43;;;3.85;;
58294;SDS011;45705;55.592;37.460;2023-06-14T09:53:49;8.52;;;3.95;;
58294;SDS011;45705;55.592;37.460;2023-06-14T09:56:21;8.52;;;3.80;;
58294;SDS011;45705;55.592;37.460;2023-06-14T09:58:52;6.07;;;3.60;;
58294;SDS011;45705;55.592;37.460;2023-06-14T10:01:20;9.20;;;4.20;;
58294;SDS011;45705;55.592;37.460;2023-06-14T10:03:49;12.82;;;4.43;;
58294;SDS011;45705;55.592;37.460;2023-06-14T10:06:20;6.72;;;4.00;;
58294;SDS011;45705;55.592;37.460;2023-06-14T10:08:50;9.05;;;3.60;;
58294;SDS011;45705;55.592;37.460;2023-06-14T10:11:17;8.15;;;4.05;;
58294;SDS011;45705;55.592;37.460;2023-06-14T10:13:43;10.00;;;3.75;;
58294;SDS011;45705;55.592;37.460;2023-06-14T10:16:12;8.88;;;4.22;;
58294;SDS011;45705;55.592;37.460;2023-06-14T10:24:12;11.43;;;4.00;;
58294;SDS011;45705;55.592;37.460;2023-06-14T10:26:54;7.60;;;4.38;;
58294;SDS011;45705;55.592;37.460;2023-06-14T10:29:22;8.48;;;4.47;;
58294;SDS011;45705;55.592;37.460;2023-06-14T10:31:57;11.35;;;4.57;;
58294;SDS011;45705;55.592;37.460;2023-06-14T10:34:24;7.68;;;4.18;;
58294;SDS011;45705;55.592;37.460;2023-06-14T10:39:28;12.32;;;3.65;;
58294;SDS011;45705;55.592;37.460;2023-06-14T10:41:55;6.70;;;3.80;;
58294;SDS011;45705;55.592;37.460;2023-06-14T10:46:49;13.95;;;4.22;;
58294;SDS011;45705;55.592;37.460;2023-06-14T10:49:18;7.28;;;4.32;;
58294;SDS011;45705;55.592;37.460;2023-06-14T10:51:45;12.05;;;3.90;;
58294;SDS011;45705;55.592;37.460;2023-06-14T10:54:15;6.78;;;4.15;;
58294;SDS011;45705;55.592;37.460;2023-06-14T10:56:52;9.45;;;3.67;;
58294;SDS011;45705;55.592;37.460;2023-06-14T10:59:20;10.95;;;4.35;;
58294;SDS011;45705;55.592;37.460;2023-06-14T11:01:55;6.53;;;4.60;;
58294;SDS011;45705;55.592;37.460;2023-06-14T11:13:16;9.63;;;4.85;;
58294;SDS011;45705;55.592;37.460;2023-06-14T11:15:44;9.98;;;4.20;;
58294;SDS011;45705;55.592;37.460;2023-06-14T11:18:10;6.50;;;4.60;;
58294;SDS011;45705;55.592;37.460;2023-06-14T11:20:39;7.45;;;5.00;;
58294;SDS011;45705;55.592;37.460;2023-06-14T11:23:05;8.07;;;3.85;;
58294;SDS011;45705;55.592;37.460;2023-06-14T11:25:31;6.47;;;3.30;;
58294;SDS011;45705;55.592;37.460;2023-06-14T11:27:58;8.32;;;3.80;;
58294;SDS011;45705;55.592;37.460;2023-06-14T11:30:24;10.95;;;6.05;;
58294;SDS011;45705;55.592;37.460;2023-06-14T11:32:54;12.77;;;4.32;;
58294;SDS011;45705;55.592;37.460;2023-06-14T11:35:23;10.23;;;4.03;;
58294;SDS011;45705;55.592;37.460;2023-06-14T11:37:56;8.75;;;4.50;;
58294;SDS011;45705;55.592;37.460;2023-06-14T11:40:24;8.20;;;4.10;;
58294;SDS011;45705;55.592;37.460;2023-06-14T11:42:54;10.63;;;3.58;;
58294;SDS011;45705;55.592;37.460;2023-06-14T11:45:24;6.63;;;3.90;;
58294;SDS011;45705;55.592;37.460;2023-06-14T11:47:50;6.47;;;3.78;;
58294;SDS011;45705;55.592;37.460;2023-06-14T11:50:16;9.80;;;4.05;;
58294;SDS011;45705;55.592;37.460;2023-06-14T11:52:42;9.40;;;4.13;;
58294;SDS011;45705;55.592;37.460;2023-06-14T11:55:08;11.63;;;4.30;;
58294;SDS011;45705;55.592;37.460;2023-06-14T11:57:34;7.82;;;3.55;;
58294;SDS011;45705;55.592;37.460;2023-06-14T12:00:04;6.40;;;4.00;;
58294;SDS011;45705;55.592;37.460;2023-06-14T12:02:38;8.07;;;4.38;;
58294;SDS011;45705;55.592;37.460;2023-06-14T12:05:07;9.25;;;3.72;;
58294;SDS011;45705;55.592;37.460;2023-06-14T12:07:38;5.82;;;3.58;;
58294;SDS011;45705;55.592;37.460;2023-06-14T12:10:06;6.57;;;3.70;;
58294;SDS011;45705;55.592;37.460;2023-06-14T12:12:36;6.95;;;4.03;;
58294;SDS011;45705;55.592;37.460;2023-06-14T12:15:07;7.32;;;4.38;;
58294;SDS011;45705;55.592;37.460;2023-06-14T12:17:35;9.82;;;3.85;;
58294;SDS011;45705;55.592;37.460;2023-06-14T12:20:22;8.55;;;4.25;;
58294;SDS011;45705;55.592;37.460;2023-06-14T12:22:55;11.57;;;3.63;;
58294;SDS011;45705;55.592;37.460;2023-06-14T12:25:23;14.50;;;3.67;;
58294;SDS011;45705;55.592;37.460;2023-06-14T12:27:59;8.70;;;3.92;;
58294;SDS011;45705;55.592;37.460;2023-06-14T12:30:32;5.80;;;3.58;;
58294;SDS011;45705;55.592;37.460;2023-06-14T12:32:58;6.78;;;3.78;;
58294;SDS011;45705;55.592;37.460;2023-06-14T12:35:25;9.63;;;3.78;;
58294;SDS011;45705;55.592;37.460;2023-06-14T12:37:51;7.90;;;3.55;;
58294;SDS011;45705;55.592;37.460;2023-06-14T12:40:17;8.90;;;3.40;;
58294;SDS011;45705;55.592;37.460;2023-06-14T12:42:44;5.80;;;3.45;;
58294;SDS011;45705;55.592;37.460;2023-06-14T12:45:12;6.35;;;3.85;;
58294;SDS011;45705;55.592;37.460;2023-06-14T12:47:38;5.65;;;3.05;;
58294;SDS011;45705;55.592;37.460;2023-06-14T12:50:04;6.22;;;3.25;;
58294;SDS011;45705;55.592;37.460;2023-06-14T12:52:31;5.68;;;3.95;;
58294;SDS011;45705;55.592;37.460;2023-06-14T12:54:57;7.82;;;4.18;;
58294;SDS011;45705;55.592;37.460;2023-06-14T12:57:23;8.27;;;4.13;;
58294;SDS011;45705;55.592;37.460;2023-06-14T12:59:49;4.53;;;3.50;;
58294;SDS011;45705;55.592;37.460;2023-06-14T13:02:19;9.23;;;4.00;;
58294;SDS011;45705;55.592;37.460;2023-06-14T13:04:49;11.85;;;3.80;;
58294;SDS011;45705;55.592;37.460;2023-06-14T13:07:16;7.43;;;4.15;;
58294;SDS011;45705;55.592;37.460;2023-06-14T13:09:42;13.40;;;4.25;;
58294;SDS011;45705;55.592;37.460;2023-06-14T13:12:09;7.55;;;4.30;;
58294;SDS011;45705;55.592;37.460;2023-06-14T13:14:36;8.05;;;3.53;;
58294;SDS011;45705;55.592;37.460;2023-06-14T13:17:02;9.80;;;3.88;;
58294;SDS011;45705;55.592;37.460;2023-06-14T13:19:28;6.90;;;3.78;;
58294;SDS011;45705;55.592;37.460;2023-06-14T13:21:54;8.25;;;3.70;;
58294;SDS011;45705;55.592;37.460;2023-06-14T13:24:20;8.63;;;3.90;;
58294;SDS011;45705;55.592;37.460;2023-06-14T13:26:46;4.80;;;3.53;;
58294;SDS011;45705;55.592;37.460;2023-06-14T13:29:11;10.13;;;3.58;;
58294;SDS011;45705;55.592;37.460;2023-06-14T13:31:37;8.70;;;3.72;;
58294;SDS011;45705;55.592;37.460;2023-06-14T13:34:03;6.70;;;3.67;;
58294;SDS011;45705;55.592;37.460;2023-06-14T13:36:29;12.90;;;3.97;;
58294;SDS011;45705;55.592;37.460;2023-06-14T13:38:55;10.02;;;4.00;;
58294;SDS011;45705;55.592;37.460;2023-06-14T13:41:21;11.30;;;4.28;;
58294;SDS011;45705;55.592;37.460;2023-06-14T13:43:47;7.00;;;3.50;;
58294;SDS011;45705;55.592;37.460;2023-06-14T13:46:12;11.68;;;4.35;;
58294;SDS011;45705;55.592;37.460;2023-06-14T13:48:38;6.60;;;4.28;;
58294;SDS011;45705;55.592;37.460;2023-06-14T13:51:04;8.43;;;3.90;;
58294;SDS011;45705;55.592;37.460;2023-06-14T13:53:30;9.85;;;4.10;;
58294;SDS011;45705;55.592;37.460;2023-06-14T13:55:56;5.63;;;3.95;;
58294;SDS011;45705;55.592;37.460;2023-06-14T13:58:22;7.43;;;3.67;;
58294;SDS011;45705;55.592;37.460;2023-06-14T14:00:49;7.38;;;3.88;;
58294;SDS011;45705;55.592;37.460;2023-06-14T14:03:15;9.73;;;4.07;;
58294;SDS011;45705;55.592;37.460;2023-06-14T14:05:41;6.50;;;3.70;;
58294;SDS011;45705;55.592;37.460;2023-06-14T14:08:07;11.20;;;4.53;;
58294;SDS011;45705;55.592;37.460;2023-06-14T14:10:32;11.05;;;3.95;;
58294;SDS011;45705;55.592;37.460;2023-06-14T14:12:58;15.55;;;4.18;;
58294;SDS011;45705;55.592;37.460;2023-06-14T14:15:25;6.65;;;3.60;;
58294;SDS011;45705;55.592;37.460;2023-06-14T14:17:51;8.68;;;3.70;;
58294;SDS011;45705;55.592;37.460;2023-06-14T14:20:17;6.43;;;3.10;;
58294;SDS011;45705;55.592;37.460;2023-06-14T14:22:42;5.25;;;2.90;;
58294;SDS011;45705;55.592;37.460;2023-06-14T14:25:09;4.28;;;3.13;;
58294;SDS011;45705;55.592;37.460;2023-06-14T14:27:35;9.50;;;4.10;;
58294;SDS011;45705;55.592;37.460;2023-06-14T14:30:01;5.63;;;3.38;;
58294;SDS011;45705;55.592;37.460;2023-06-14T14:32:31;6.57;;;3.63;;
58294;SDS011;45705;55.592;37.460;2023-06-14T14:34:58;8.00;;;3.10;;
58294;SDS011;45705;55.592;37.460;2023-06-14T14:37:23;7.78;;;3.53;;
58294;SDS011;45705;55.592;37.460;2023-06-14T14:39:49;8.45;;;3.45;;
58294;SDS011;45705;55.592;37.460;2023-06-14T14:42:15;12.35;;;3.67;;
58294;SDS011;45705;55.592;37.460;2023-06-14T14:44:41;8.75;;;3.95;;
58294;SDS011;45705;55.592;37.460;2023-06-14T14:47:07;7.68;;;3.63;;
58294;SDS011;45705;55.592;37.460;2023-06-14T14:49:33;7.68;;;3.92;;
58294;SDS011;45705;55.592;37.460;2023-06-14T14:51:58;10.77;;;4.05;;
58294;SDS011;45705;55.592;37.460;2023-06-14T14:54:24;14.07;;;4.55;;
58294;SDS011;45705;55.592;37.460;2023-06-14T14:56:50;6.03;;;3.50;;